sensor_id;sensor_type;location;lat;lon;timestamp;temperature;humidity
26336;DHT22;14047;50.936;4.654;2023-04-01T00:00:30;9.90;99.90
26336;DHT22;14047;50.936;4.654;2023-04-01T00:02:57;9.90;99.90
26336;DHT22;14047;50.936;4.654;2023-04-01T00:05:22;9.90;99.90
26336;DHT22;14047;50.936;4.654;2023-04-01T00:07:50;9.90;99.90
26336;DHT22;14047;50.936;4.654;2023-04-01T00:10:17;9.90;99.90
26336;DHT22;14047;50.936;4.654;2023-04-01T00:12:43;9.90;99.90
26336;DHT22;14047;50.936;4.654;2023-04-01T00:15:11;9.90;99.90
26336;DHT22;14047;50.936;4.654;2023-04-01T00:17:37;9.90;99.90
26336;DHT22;14047;50.936;4.654;2023-04-01T00:20:05;9.90;99.90
26336;DHT22;14047;50.936;4.654;2023-04-01T00:22:31;9.90;99.90
26336;DHT22;14047;50.936;4.654;2023-04-01T00:24:57;9.90;99.90
26336;DHT22;14047;50.936;4.654;2023-04-01T00:27:23;9.90;99.90
26336;DHT22;14047;50.936;4.654;2023-04-01T00:29:49;9.90;99.90
26336;DHT22;14047;50.936;4.654;2023-04-01T00:32:15;9.90;99.90
26336;DHT22;14047;50.936;4.654;2023-04-01T00:34:41;9.90;99.90
26336;DHT22;14047;50.936;4.654;2023-04-01T00:37:07;9.90;99.90
26336;DHT22;14047;50.936;4.654;2023-04-01T00:39:34;9.90;99.90
26336;DHT22;14047;50.936;4.654;2023-04-01T00:42:02;10.00;99.90
26336;DHT22;14047;50.936;4.654;2023-04-01T00:44:31;9.90;99.90
26336;DHT22;14047;50.936;4.654;2023-04-01T00:46:59;9.90;99.90
26336;DHT22;14047;50.936;4.654;2023-04-01T00:49:34;9.90;99.90
26336;DHT22;14047;50.936;4.654;2023-04-01T00:52:03;9.90;99.90
26336;DHT22;14047;50.936;4.654;2023-04-01T00:54:31;9.90;99.90
26336;DHT22;14047;50.936;4.654;2023-04-01T00:57:00;9.90;99.90
26336;DHT22;14047;50.936;4.654;2023-04-01T00:59:40;9.90;99.90
26336;DHT22;14047;50.936;4.654;2023-04-01T01:02:11;9.90;99.90
26336;DHT22;14047;50.936;4.654;2023-04-01T01:04:38;9.90;99.90
26336;DHT22;14047;50.936;4.654;2023-04-01T01:16:09;9.90;99.90
26336;DHT22;14047;50.936;4.654;2023-04-01T01:37:44;9.90;99.90
26336;DHT22;14047;50.936;4.654;2023-04-01T01:40:13;9.90;99.90
26336;DHT22;14047;50.936;4.654;2023-04-01T01:42:45;9.90;99.90
26336;DHT22;14047;50.936;4.654;2023-04-01T01:45:14;9.90;99.90
26336;DHT22;14047;50.936;4.654;2023-04-01T01:47:45;9.90;99.90
26336;DHT22;14047;50.936;4.654;2023-04-01T01:50:13;9.90;99.90
26336;DHT22;14047;50.936;4.654;2023-04-01T01:52:39;9.90;99.90
26336;DHT22;14047;50.936;4.654;2023-04-01T01:58:07;9.90;99.90
26336;DHT22;14047;50.936;4.654;2023-04-01T02:00:38;9.90;99.90
26336;DHT22;14047;50.936;4.654;2023-04-01T02:03:05;9.80;99.90
26336;DHT22;14047;50.936;4.654;2023-04-01T02:05:31;9.80;99.90
26336;DHT22;14047;50.936;4.654;2023-04-01T02:08:09;9.90;99.90
26336;DHT22;14047;50.936;4.654;2023-04-01T02:10:40;9.80;99.90
26336;DHT22;14047;50.936;4.654;2023-04-01T02:13:24;9.80;99.90
26336;DHT22;14047;50.936;4.654;2023-04-01T02:15:53;9.90;99.90
26336;DHT22;14047;50.936;4.654;2023-04-01T02:18:21;9.90;99.90
26336;DHT22;14047;50.936;4.654;2023-04-01T02:20:49;9.80;99.90
26336;DHT22;14047;50.936;4.654;2023-04-01T02:23:15;9.80;99.90
26336;DHT22;14047;50.936;4.654;2023-04-01T02:25:42;9.80;99.90
26336;DHT22;14047;50.936;4.654;2023-04-01T02:28:10;9.80;99.90
26336;DHT22;14047;50.936;4.654;2023-04-01T02:30:39;9.90;99.90
26336;DHT22;14047;50.936;4.654;2023-04-01T02:33:07;9.80;99.90
26336;DHT22;14047;50.936;4.654;2023-04-01T02:35:35;9.70;99.90
26336;DHT22;14047;50.936;4.654;2023-04-01T02:38:02;9.70;99.90
26336;DHT22;14047;50.936;4.654;2023-04-01T02:40:28;9.70;99.90
26336;DHT22;14047;50.936;4.654;2023-04-01T02:42:55;9.70;99.90
26336;DHT22;14047;50.936;4.654;2023-04-01T02:45:21;9.70;99.90
26336;DHT22;14047;50.936;4.654;2023-04-01T02:47:46;9.70;99.90
26336;DHT22;14047;50.936;4.654;2023-04-01T02:50:12;9.70;99.90
26336;DHT22;14047;50.936;4.654;2023-04-01T02:52:38;9.70;99.90
26336;DHT22;14047;50.936;4.654;2023-04-01T02:55:05;9.70;99.90
26336;DHT22;14047;50.936;4.654;2023-04-01T02:57:31;9.80;99.90
26336;DHT22;14047;50.936;4.654;2023-04-01T02:59:57;9.80;99.90
26336;DHT22;14047;50.936;4.654;2023-04-01T03:02:23;9.80;99.90
26336;DHT22;14047;50.936;4.654;2023-04-01T03:04:49;9.70;99.90
26336;DHT22;14047;50.936;4.654;2023-04-01T03:07:15;9.70;99.90
26336;DHT22;14047;50.936;4.654;2023-04-01T03:09:41;9.60;99.90
26336;DHT22;14047;50.936;4.654;2023-04-01T03:12:07;9.60;99.90
26336;DHT22;14047;50.936;4.654;2023-04-01T03:14:43;9.60;99.90
26336;DHT22;14047;50.936;4.654;2023-04-01T03:17:09;9.60;99.90
26336;DHT22;14047;50.936;4.654;2023-04-01T03:19:35;9.60;99.90
26336;DHT22;14047;50.936;4.654;2023-04-01T03:22:05;9.60;99.90
26336;DHT22;14047;50.936;4.654;2023-04-01T03:24:31;9.60;99.90
26336;DHT22;14047;50.936;4.654;2023-04-01T03:26:57;9.60;99.90
26336;DHT22;14047;50.936;4.654;2023-04-01T03:29:23;9.60;99.90
26336;DHT22;14047;50.936;4.654;2023-04-01T03:31:49;9.60;99.90
26336;DHT22;14047;50.936;4.654;2023-04-01T03:34:15;9.60;99.90
26336;DHT22;14047;50.936;4.654;2023-04-01T03:36:41;9.60;99.90
26336;DHT22;14047;50.936;4.654;2023-04-01T03:39:07;9.50;99.90
26336;DHT22;14047;50.936;4.654;2023-04-01T03:41:40;9.50;99.90
26336;DHT22;14047;50.936;4.654;2023-04-01T03:44:06;9.50;99.90
26336;DHT22;14047;50.936;4.654;2023-04-01T03:46:32;9.50;99.90
26336;DHT22;14047;50.936;4.654;2023-04-01T03:48:58;9.50;99.90
26336;DHT22;14047;50.936;4.654;2023-04-01T03:51:24;9.60;99.90
26336;DHT22;14047;50.936;4.654;2023-04-01T03:53:50;9.60;99.90
26336;DHT22;14047;50.936;4.654;2023-04-01T03:56:16;9.60;99.90
26336;DHT22;14047;50.936;4.654;2023-04-01T03:58:42;9.50;99.90
26336;DHT22;14047;50.936;4.654;2023-04-01T04:01:20;9.60;99.90
26336;DHT22;14047;50.936;4.654;2023-04-01T04:03:49;9.60;99.90
26336;DHT22;14047;50.936;4.654;2023-04-01T04:06:17;9.50;99.90
26336;DHT22;14047;50.936;4.654;2023-04-01T04:08:44;9.50;99.90
26336;DHT22;14047;50.936;4.654;2023-04-01T04:11:10;9.60;99.90
26336;DHT22;14047;50.936;4.654;2023-04-01T04:13:39;9.60;99.90
26336;DHT22;14047;50.936;4.654;2023-04-01T04:16:05;9.50;99.90
26336;DHT22;14047;50.936;4.654;2023-04-01T04:18:32;9.50;99.90
26336;DHT22;14047;50.936;4.654;2023-04-01T04:20:58;9.50;99.90
26336;DHT22;14047;50.936;4.654;2023-04-01T04:23:24;9.50;99.90
26336;DHT22;14047;50.936;4.654;2023-04-01T04:25:59;9.50;99.90
26336;DHT22;14047;50.936;4.654;2023-04-01T04:28:27;9.50;99.90
26336;DHT22;14047;50.936;4.654;2023-04-01T04:30:55;9.60;99.90
26336;DHT22;14047;50.936;4.654;2023-04-01T04:33:24;9.50;99.90
26336;DHT22;14047;50.936;4.654;2023-04-01T04:35:54;9.60;99.90
26336;DHT22;14047;50.936;4.654;2023-04-01T04:38:21;9.50;99.90
26336;DHT22;14047;50.936;4.654;2023-04-01T04:40:47;9.50;99.90
26336;DHT22;14047;50.936;4.654;2023-04-01T04:43:14;9.50;99.90
26336;DHT22;14047;50.936;4.654;2023-04-01T04:45:42;9.50;99.90
26336;DHT22;14047;50.936;4.654;2023-04-01T04:48:13;9.50;99.90
26336;DHT22;14047;50.936;4.654;2023-04-01T04:50:53;9.50;99.90
26336;DHT22;14047;50.936;4.654;2023-04-01T04:53:22;9.50;99.90
26336;DHT22;14047;50.936;4.654;2023-04-01T04:55:49;9.40;99.90
26336;DHT22;14047;50.936;4.654;2023-04-01T04:58:39;9.40;99.90
26336;DHT22;14047;50.936;4.654;2023-04-01T05:01:11;9.40;99.90
26336;DHT22;14047;50.936;4.654;2023-04-01T05:03:39;9.40;99.90
26336;DHT22;14047;50.936;4.654;2023-04-01T05:06:06;9.50;99.90
26336;DHT22;14047;50.936;4.654;2023-04-01T05:08:33;9.50;99.90
26336;DHT22;14047;50.936;4.654;2023-04-01T05:11:00;9.50;99.90
26336;DHT22;14047;50.936;4.654;2023-04-01T05:13:28;9.60;99.90
26336;DHT22;14047;50.936;4.654;2023-04-01T05:15:55;9.60;99.90
26336;DHT22;14047;50.936;4.654;2023-04-01T05:18:21;9.60;99.90
26336;DHT22;14047;50.936;4.654;2023-04-01T05:20:52;9.60;99.90
26336;DHT22;14047;50.936;4.654;2023-04-01T05:23:19;9.60;99.90
26336;DHT22;14047;50.936;4.654;2023-04-01T05:25:48;9.60;99.90
26336;DHT22;14047;50.936;4.654;2023-04-01T05:28:14;9.50;99.90
26336;DHT22;14047;50.936;4.654;2023-04-01T05:30:43;9.50;99.90
26336;DHT22;14047;50.936;4.654;2023-04-01T05:33:24;9.50;99.90
26336;DHT22;14047;50.936;4.654;2023-04-01T05:35:50;9.50;99.90
26336;DHT22;14047;50.936;4.654;2023-04-01T05:38:16;9.50;99.90
26336;DHT22;14047;50.936;4.654;2023-04-01T05:40:42;9.50;99.90
26336;DHT22;14047;50.936;4.654;2023-04-01T05:43:07;9.50;99.90
26336;DHT22;14047;50.936;4.654;2023-04-01T05:45:34;9.50;99.90
26336;DHT22;14047;50.936;4.654;2023-04-01T05:48:12;9.50;99.90
26336;DHT22;14047;50.936;4.654;2023-04-01T05:50:40;9.50;99.90
26336;DHT22;14047;50.936;4.654;2023-04-01T05:53:09;9.50;99.90
26336;DHT22;14047;50.936;4.654;2023-04-01T05:55:36;9.50;99.90
26336;DHT22;14047;50.936;4.654;2023-04-01T05:58:03;9.50;99.90
26336;DHT22;14047;50.936;4.654;2023-04-01T06:00:29;9.50;99.90
26336;DHT22;14047;50.936;4.654;2023-04-01T06:02:59;9.50;99.90
26336;DHT22;14047;50.936;4.654;2023-04-01T06:05:29;9.50;99.90
26336;DHT22;14047;50.936;4.654;2023-04-01T06:07:59;9.50;99.90
26336;DHT22;14047;50.936;4.654;2023-04-01T06:14:11;9.60;99.90
26336;DHT22;14047;50.936;4.654;2023-04-01T06:19:13;9.60;99.90
26336;DHT22;14047;50.936;4.654;2023-04-01T06:21:53;9.50;99.90
26336;DHT22;14047;50.936;4.654;2023-04-01T06:24:46;9.60;99.90
26336;DHT22;14047;50.936;4.654;2023-04-01T06:30:33;9.60;99.90
26336;DHT22;14047;50.936;4.654;2023-04-01T06:33:35;9.60;99.90
26336;DHT22;14047;50.936;4.654;2023-04-01T06:53:56;9.50;99.90
26336;DHT22;14047;50.936;4.654;2023-04-01T06:56:45;9.50;99.90
26336;DHT22;14047;50.936;4.654;2023-04-01T06:59:27;9.60;99.90
26336;DHT22;14047;50.936;4.654;2023-04-01T07:04:46;9.60;99.90
26336;DHT22;14047;50.936;4.654;2023-04-01T07:07:47;9.60;99.90
26336;DHT22;14047;50.936;4.654;2023-04-01T07:11:04;9.60;99.90
26336;DHT22;14047;50.936;4.654;2023-04-01T07:13:31;9.50;99.90
26336;DHT22;14047;50.936;4.654;2023-04-01T07:16:11;9.40;99.90
26336;DHT22;14047;50.936;4.654;2023-04-01T07:19:11;9.40;99.90
26336;DHT22;14047;50.936;4.654;2023-04-01T07:21:56;9.50;99.90
26336;DHT22;14047;50.936;4.654;2023-04-01T07:24:44;9.60;99.90
26336;DHT22;14047;50.936;4.654;2023-04-01T07:27:13;9.50;99.90
26336;DHT22;14047;50.936;4.654;2023-04-01T07:29:40;9.40;99.90
26336;DHT22;14047;50.936;4.654;2023-04-01T07:32:31;9.30;99.90
26336;DHT22;14047;50.936;4.654;2023-04-01T07:35:09;9.40;99.90
26336;DHT22;14047;50.936;4.654;2023-04-01T07:43:43;9.60;99.90
26336;DHT22;14047;50.936;4.654;2023-04-01T07:46:56;9.60;99.90
26336;DHT22;14047;50.936;4.654;2023-04-01T07:52:06;9.70;99.90
26336;DHT22;14047;50.936;4.654;2023-04-01T07:57:27;9.50;99.90
26336;DHT22;14047;50.936;4.654;2023-04-01T08:06:08;9.70;99.90
26336;DHT22;14047;50.936;4.654;2023-04-01T08:11:59;9.80;99.90
26336;DHT22;14047;50.936;4.654;2023-04-01T08:15:32;10.00;99.90
26336;DHT22;14047;50.936;4.654;2023-04-01T08:21:10;9.90;99.90
26336;DHT22;14047;50.936;4.654;2023-04-01T08:23:49;9.90;99.90
26336;DHT22;14047;50.936;4.654;2023-04-01T08:26:35;9.90;99.90
26336;DHT22;14047;50.936;4.654;2023-04-01T08:29:13;10.00;99.90
26336;DHT22;14047;50.936;4.654;2023-04-01T08:34:27;10.00;99.90
26336;DHT22;14047;50.936;4.654;2023-04-01T08:37:19;10.10;99.90
26336;DHT22;14047;50.936;4.654;2023-04-01T08:39:51;10.20;99.90
26336;DHT22;14047;50.936;4.654;2023-04-01T08:42:48;10.20;99.90
26336;DHT22;14047;50.936;4.654;2023-04-01T08:48:28;10.10;99.90
26336;DHT22;14047;50.936;4.654;2023-04-01T08:51:27;10.10;99.90
26336;DHT22;14047;50.936;4.654;2023-04-01T09:00:25;10.20;99.90
26336;DHT22;14047;50.936;4.654;2023-04-01T09:12:50;10.20;99.90
26336;DHT22;14047;50.936;4.654;2023-04-01T09:15:12;10.20;99.90
26336;DHT22;14047;50.936;4.654;2023-04-01T09:38:11;10.60;99.90
26336;DHT22;14047;50.936;4.654;2023-04-01T09:49:05;10.60;99.90
26336;DHT22;14047;50.936;4.654;2023-04-01T09:55:13;10.60;99.90
26336;DHT22;14047;50.936;4.654;2023-04-01T10:00:49;10.70;99.90
26336;DHT22;14047;50.936;4.654;2023-04-01T10:12:08;10.60;99.90
26336;DHT22;14047;50.936;4.654;2023-04-01T10:15:18;10.60;99.90
26336;DHT22;14047;50.936;4.654;2023-04-01T10:23:44;10.50;99.90
26336;DHT22;14047;50.936;4.654;2023-04-01T10:32:15;11.00;99.90
26336;DHT22;14047;50.936;4.654;2023-04-01T10:35:02;11.10;99.90
26336;DHT22;14047;50.936;4.654;2023-04-01T10:40:44;11.30;99.90
26336;DHT22;14047;50.936;4.654;2023-04-01T10:44:04;11.30;99.90
26336;DHT22;14047;50.936;4.654;2023-04-01T10:46:56;11.20;99.90
26336;DHT22;14047;50.936;4.654;2023-04-01T11:01:55;11.20;99.90
26336;DHT22;14047;50.936;4.654;2023-04-01T11:16:43;11.00;99.90
26336;DHT22;14047;50.936;4.654;2023-04-01T11:19:32;11.10;99.90
26336;DHT22;14047;50.936;4.654;2023-04-01T11:43:30;11.20;99.90
26336;DHT22;14047;50.936;4.654;2023-04-01T11:46:25;11.10;99.90
26336;DHT22;14047;50.936;4.654;2023-04-01T11:51:45;10.80;99.90
26336;DHT22;14047;50.936;4.654;2023-04-01T11:57:13;10.70;99.90
26336;DHT22;14047;50.936;4.654;2023-04-01T12:05:34;11.20;99.90
26336;DHT22;14047;50.936;4.654;2023-04-01T12:08:19;11.40;99.90
26336;DHT22;14047;50.936;4.654;2023-04-01T12:11:00;11.40;99.90
26336;DHT22;14047;50.936;4.654;2023-04-01T12:13:36;11.20;99.90
26336;DHT22;14047;50.936;4.654;2023-04-01T12:21:52;11.40;99.90
26336;DHT22;14047;50.936;4.654;2023-04-01T12:27:31;11.60;99.90
26336;DHT22;14047;50.936;4.654;2023-04-01T12:41:44;11.30;99.90
26336;DHT22;14047;50.936;4.654;2023-04-01T12:47:16;11.00;99.90
26336;DHT22;14047;50.936;4.654;2023-04-01T12:55:35;10.70;99.90
26336;DHT22;14047;50.936;4.654;2023-04-01T12:58:38;10.80;99.90
26336;DHT22;14047;50.936;4.654;2023-04-01T13:01:35;10.90;99.90
26336;DHT22;14047;50.936;4.654;2023-04-01T13:04:37;11.00;99.90
26336;DHT22;14047;50.936;4.654;2023-04-01T13:10:09;11.10;99.90
26336;DHT22;14047;50.936;4.654;2023-04-01T13:26:11;11.20;99.90
26336;DHT22;14047;50.936;4.654;2023-04-01T13:29:13;11.10;99.90
26336;DHT22;14047;50.936;4.654;2023-04-01T13:34:55;11.10;99.90
26336;DHT22;14047;50.936;4.654;2023-04-01T13:43:28;11.10;99.90
26336;DHT22;14047;50.936;4.654;2023-04-01T14:05:51;10.60;99.90
26336;DHT22;14047;50.936;4.654;2023-04-01T14:08:39;10.50;99.90
26336;DHT22;14047;50.936;4.654;2023-04-01T14:14:26;10.60;99.90
26336;DHT22;14047;50.936;4.654;2023-04-01T14:26:03;10.80;99.90
26336;DHT22;14047;50.936;4.654;2023-04-01T14:34:15;10.90;99.90
26336;DHT22;14047;50.936;4.654;2023-04-01T14:48:15;11.60;99.90
26336;DHT22;14047;50.936;4.654;2023-04-01T14:50:49;11.30;99.90
26336;DHT22;14047;50.936;4.654;2023-04-01T14:55:52;11.20;99.90
26336;DHT22;14047;50.936;4.654;2023-04-01T14:58:21;11.40;99.90
26336;DHT22;14047;50.936;4.654;2023-04-01T15:03:33;11.70;99.90
26336;DHT22;14047;50.936;4.654;2023-04-01T15:23:05;11.60;99.90
26336;DHT22;14047;50.936;4.654;2023-04-01T15:34:07;11.30;99.90
26336;DHT22;14047;50.936;4.654;2023-04-01T15:37:01;11.20;99.90
26336;DHT22;14047;50.936;4.654;2023-04-01T15:48:02;11.00;99.90
26336;DHT22;14047;50.936;4.654;2023-04-01T15:51:14;10.90;99.90
26336;DHT22;14047;50.936;4.654;2023-04-01T15:53:27;10.90;99.90
26336;DHT22;14047;50.936;4.654;2023-04-01T16:02:36;10.90;99.90
26336;DHT22;14047;50.936;4.654;2023-04-01T16:16:29;10.50;99.90
26336;DHT22;14047;50.936;4.654;2023-04-01T16:27:54;10.40;99.90
26336;DHT22;14047;50.936;4.654;2023-04-01T16:30:39;10.30;99.90
26336;DHT22;14047;50.936;4.654;2023-04-01T16:35:59;10.20;99.90
26336;DHT22;14047;50.936;4.654;2023-04-01T16:38:36;10.20;99.90
26336;DHT22;14047;50.936;4.654;2023-04-01T16:41:32;10.10;99.90
26336;DHT22;14047;50.936;4.654;2023-04-01T16:44:22;9.90;99.90
26336;DHT22;14047;50.936;4.654;2023-04-01T16:47:10;9.70;99.90
26336;DHT22;14047;50.936;4.654;2023-04-01T16:55:18;9.50;99.90
26336;DHT22;14047;50.936;4.654;2023-04-01T16:57:59;9.60;99.90
26336;DHT22;14047;50.936;4.654;2023-04-01T17:00:28;9.60;99.90
26336;DHT22;14047;50.936;4.654;2023-04-01T17:03:12;9.60;99.90
26336;DHT22;14047;50.936;4.654;2023-04-01T17:11:18;9.70;99.90
26336;DHT22;14047;50.936;4.654;2023-04-01T17:13:49;9.70;99.90
26336;DHT22;14047;50.936;4.654;2023-04-01T17:16:28;9.70;99.90
26336;DHT22;14047;50.936;4.654;2023-04-01T17:26:52;9.70;99.90
26336;DHT22;14047;50.936;4.654;2023-04-01T17:29:33;9.70;99.90
26336;DHT22;14047;50.936;4.654;2023-04-01T17:32:07;9.60;99.90
26336;DHT22;14047;50.936;4.654;2023-04-01T17:37:49;9.70;99.90
26336;DHT22;14047;50.936;4.654;2023-04-01T17:40:33;9.50;99.90
26336;DHT22;14047;50.936;4.654;2023-04-01T17:45:49;9.50;99.90
26336;DHT22;14047;50.936;4.654;2023-04-01T17:48:46;9.70;99.90
26336;DHT22;14047;50.936;4.654;2023-04-01T17:51:24;9.60;99.90
26336;DHT22;14047;50.936;4.654;2023-04-01T18:08:23;9.80;99.90
26336;DHT22;14047;50.936;4.654;2023-04-01T18:11:13;9.80;99.90
26336;DHT22;14047;50.936;4.654;2023-04-01T18:21:57;9.70;99.90
26336;DHT22;14047;50.936;4.654;2023-04-01T18:24:32;9.80;99.90
26336;DHT22;14047;50.936;4.654;2023-04-01T18:29:55;9.90;99.90
26336;DHT22;14047;50.936;4.654;2023-04-01T18:32:56;10.00;99.90
26336;DHT22;14047;50.936;4.654;2023-04-01T18:38:31;9.90;99.90
26336;DHT22;14047;50.936;4.654;2023-04-01T18:46:49;10.00;99.90
26336;DHT22;14047;50.936;4.654;2023-04-01T18:49:45;9.90;99.90
26336;DHT22;14047;50.936;4.654;2023-04-01T18:52:26;10.00;99.90
26336;DHT22;14047;50.936;4.654;2023-04-01T19:00:21;9.90;99.90
26336;DHT22;14047;50.936;4.654;2023-04-01T19:08:53;10.00;99.90
26336;DHT22;14047;50.936;4.654;2023-04-01T19:19:59;9.80;99.90
26336;DHT22;14047;50.936;4.654;2023-04-01T19:27:53;9.90;99.90
26336;DHT22;14047;50.936;4.654;2023-04-01T19:30:53;9.90;99.90
26336;DHT22;14047;50.936;4.654;2023-04-01T19:38:39;9.70;99.90
26336;DHT22;14047;50.936;4.654;2023-04-01T19:47:10;9.70;99.90
26336;DHT22;14047;50.936;4.654;2023-04-01T19:50:00;9.60;99.90
26336;DHT22;14047;50.936;4.654;2023-04-01T19:52:36;9.60;99.90
26336;DHT22;14047;50.936;4.654;2023-04-01T19:55:27;9.60;99.90
26336;DHT22;14047;50.936;4.654;2023-04-01T20:00:59;9.70;99.90
26336;DHT22;14047;50.936;4.654;2023-04-01T20:14:00;9.80;99.90
26336;DHT22;14047;50.936;4.654;2023-04-01T20:19:13;9.90;99.90
26336;DHT22;14047;50.936;4.654;2023-04-01T20:21:43;9.80;99.90
26336;DHT22;14047;50.936;4.654;2023-04-01T20:24:21;9.90;99.90
26336;DHT22;14047;50.936;4.654;2023-04-01T20:27:03;9.90;99.90
26336;DHT22;14047;50.936;4.654;2023-04-01T20:29:55;9.90;99.90
26336;DHT22;14047;50.936;4.654;2023-04-01T20:40:51;9.90;99.90
26336;DHT22;14047;50.936;4.654;2023-04-01T20:46:27;10.00;99.90
26336;DHT22;14047;50.936;4.654;2023-04-01T20:49:14;10.10;99.90
26336;DHT22;14047;50.936;4.654;2023-04-01T20:52:16;10.20;99.90
26336;DHT22;14047;50.936;4.654;2023-04-01T20:57:53;10.20;99.90
26336;DHT22;14047;50.936;4.654;2023-04-01T21:00:34;10.20;99.90
26336;DHT22;14047;50.936;4.654;2023-04-01T21:06:18;10.30;99.90
26336;DHT22;14047;50.936;4.654;2023-04-01T21:17:33;10.40;99.90
26336;DHT22;14047;50.936;4.654;2023-04-01T21:25:48;10.10;99.90
26336;DHT22;14047;50.936;4.654;2023-04-01T21:44:51;9.80;99.90
26336;DHT22;14047;50.936;4.654;2023-04-01T21:47:45;9.70;99.90
26336;DHT22;14047;50.936;4.654;2023-04-01T22:08:03;9.40;99.90
26336;DHT22;14047;50.936;4.654;2023-04-01T22:11:23;9.40;99.90
26336;DHT22;14047;50.936;4.654;2023-04-01T22:13:41;9.40;99.90
26336;DHT22;14047;50.936;4.654;2023-04-01T22:22:21;9.40;99.90
26336;DHT22;14047;50.936;4.654;2023-04-01T22:30:18;9.40;99.90
26336;DHT22;14047;50.936;4.654;2023-04-01T22:32:48;9.40;99.90
26336;DHT22;14047;50.936;4.654;2023-04-01T22:38:31;9.30;99.90
26336;DHT22;14047;50.936;4.654;2023-04-01T22:43:58;9.40;99.90
26336;DHT22;14047;50.936;4.654;2023-04-01T22:49:31;9.30;99.90
26336;DHT22;14047;50.936;4.654;2023-04-01T22:52:03;9.30;99.90
26336;DHT22;14047;50.936;4.654;2023-04-01T23:00:11;9.20;99.90
26336;DHT22;14047;50.936;4.654;2023-04-01T23:02:41;9.20;99.90
26336;DHT22;14047;50.936;4.654;2023-04-01T23:05:15;9.20;99.90
26336;DHT22;14047;50.936;4.654;2023-04-01T23:12:49;9.20;99.90
26336;DHT22;14047;50.936;4.654;2023-04-01T23:15:17;9.10;99.90
26336;DHT22;14047;50.936;4.654;2023-04-01T23:17:47;9.10;99.90
26336;DHT22;14047;50.936;4.654;2023-04-01T23:20:46;9.10;99.90
26336;DHT22;14047;50.936;4.654;2023-04-01T23:28:49;8.90;99.90
26336;DHT22;14047;50.936;4.654;2023-04-01T23:31:38;8.90;99.90
26336;DHT22;14047;50.936;4.654;2023-04-01T23:37:08;8.80;99.90
26336;DHT22;14047;50.936;4.654;2023-04-01T23:39:41;8.80;99.90
26336;DHT22;14047;50.936;4.654;2023-04-01T23:44:38;8.90;99.90
26336;DHT22;14047;50.936;4.654;2023-04-01T23:47:06;8.90;99.90
26336;DHT22;14047;50.936;4.654;2023-04-01T23:49:40;9.00;99.90
26336;DHT22;14047;50.936;4.654;2023-04-01T23:52:26;9.00;99.90
26336;DHT22;14047;50.936;4.654;2023-04-01T23:57:35;8.90;99.90
